Bookmark and Share
Track history (hours):
 

Pacific Pilot IV

Last reported at 2014-Apr-17 18:34 UTC. Time now 2014-Apr-17 18:37 UTC.
Position N 54°18' W 130°21'.

Length 20 m.

Type: Pilot. MMSI: 316006722.

NotesDate/timePositionNaut miles runAvg speedWind from/ knotsBaromVisibWave heightAir tempDewpointWater temp
2014-Apr-17 18:34N 54°18' W 130°21'0 0.0
2014-Apr-17 17:33N 54°18' W 130°21'0 0.0
2014-Apr-17 16:33N 54°18' W 130°21'0 0.0
2014-Apr-17 15:33N 54°18' W 130°21'0 0.0
2014-Apr-17 14:33N 54°18' W 130°21'0 0.0
2014-Apr-17 13:33N 54°18' W 130°21'0 0.0
2014-Apr-17 12:33N 54°18' W 130°21'0 0.0
2014-Apr-17 11:33N 54°18' W 130°21'0 0.0
2014-Apr-17 10:33N 54°18' W 130°21'0 0.0
2014-Apr-17 09:33N 54°18' W 130°21'0 0.0
2014-Apr-17 08:33N 54°18' W 130°21'0 0.0
2014-Apr-17 07:33N 54°18' W 130°21'0 0.0
2014-Apr-17 06:33N 54°18' W 130°21'0 0.0
2014-Apr-17 05:33N 54°18' W 130°21'0 0.0
2014-Apr-17 04:33N 54°18' W 130°21'0 0.0
2014-Apr-17 03:33N 54°18' W 130°21'0 0.0
2014-Apr-17 02:33N 54°18' W 130°21'0 0.0
2014-Apr-17 01:33N 54°18' W 130°21'0 0.0
2014-Apr-17 00:33N 54°18' W 130°21'0 0.0
2014-Apr-16 23:33N 54°18' W 130°21'0 0.0
2014-Apr-16 22:33N 54°18' W 130°21'0 0.0
2014-Apr-16 21:33N 54°18' W 130°21'0 0.0
2014-Apr-16 20:33N 54°18' W 130°21'0 0.0
2014-Apr-16 19:33N 54°18' W 130°21'0 0.0
2014-Apr-16 18:33N 54°18' W 130°21'0 0.0
2014-Apr-16 17:33N 54°18' W 130°21'0 0.0
2014-Apr-16 16:33N 54°18' W 130°21'0 0.0
2014-Apr-16 15:33N 54°18' W 130°21'0 0.0
2014-Apr-16 14:33N 54°18' W 130°21'0 0.0
2014-Apr-16 13:33N 54°18' W 130°21'0 0.0
2014-Apr-16 12:33N 54°18' W 130°21'0 0.0
2014-Apr-16 11:33N 54°18' W 130°21'0 0.0
2014-Apr-16 10:33N 54°18' W 130°21'0 0.0
2014-Apr-16 09:34N 54°18' W 130°21'0 0.0
2014-Apr-16 08:33N 54°18' W 130°21'0 0.0
2014-Apr-16 07:33N 54°18' W 130°21'0 0.0
2014-Apr-16 06:33N 54°18' W 130°21'0 0.0
2014-Apr-16 05:33N 54°18' W 130°21'0 0.0
2014-Apr-16 04:33N 54°18' W 130°21'0 0.0
2014-Apr-16 03:34N 54°18' W 130°21'0 0.0
2014-Apr-16 02:33N 54°18' W 130°21'0 0.0
2014-Apr-16 01:33N 54°18' W 130°21'0 0.0
2014-Apr-16 00:33N 54°18' W 130°21'0 0.0
2014-Apr-15 23:33N 54°18' W 130°21'0 0.0
2014-Apr-15 22:33N 54°18' W 130°21'0 0.0
2014-Apr-15 21:33N 54°18' W 130°21'0 0.0
2014-Apr-15 20:33N 54°18' W 130°21'0 0.0
2014-Apr-15 19:33N 54°18' W 130°21'0 0.0
2014-Apr-15 18:33N 54°18' W 130°21'0 0.0
2014-Apr-15 17:34N 54°18' W 130°21'0 0.0
2014-Apr-15 16:33N 54°18' W 130°21'0 0.0
2014-Apr-15 15:33N 54°18' W 130°21'0 0.0
2014-Apr-15 14:33N 54°18' W 130°21'0 0.0
2014-Apr-15 12:34N 54°18' W 130°21'0 0.0
2014-Apr-15 11:34N 54°18' W 130°21'0 0.0
2014-Apr-15 10:34N 54°18' W 130°21'0 0.0
2014-Apr-15 09:34N 54°18' W 130°21'0 0.0
2014-Apr-15 08:34N 54°18' W 130°21'0 0.0
2014-Apr-15 07:34N 54°18' W 130°21'0 0.0
2014-Apr-15 06:34N 54°18' W 130°21'0 0.0
2014-Apr-15 05:34N 54°18' W 130°21'0 0.0
2014-Apr-15 03:34N 54°18' W 130°21'0 0.0
2014-Apr-15 02:34N 54°18' W 130°21'0 0.0
2014-Apr-15 01:34N 54°18' W 130°21'0 0.0
2014-Apr-15 00:34N 54°18' W 130°21'1413.9
2014-Apr-14 23:34N 54°18' W 130°45'6 5.8
2014-Apr-14 22:34N 54°12' W 130°46'0 0.0
2014-Apr-14 21:34N 54°12' W 130°46'0 0.0
2014-Apr-14 20:34N 54°12' W 130°46'0 0.0
2014-Apr-14 19:33N 54°12' W 130°46'6 6.4
2014-Apr-14 18:34N 54°19' W 130°43'1312.6
2014-Apr-14 17:33N 54°18' W 130°21'0 0.0
2014-Apr-14 16:34N 54°18' W 130°21'2 2.0
2014-Apr-14 15:34N 54°19' W 130°19'2 2.1
2014-Apr-14 14:34N 54°18' W 130°21'0 0.0
2014-Apr-14 13:34N 54°18' W 130°21'4 0.7
2014-Apr-14 07:33N 54°14' W 130°25'4 4.5
2014-Apr-14 06:34N 54°18' W 130°21'0 0.0
2014-Apr-14 05:33N 54°18' W 130°21'0 0.0
2014-Apr-13 22:33N 54°18' W 130°21'0 0.0
2014-Apr-13 21:33N 54°18' W 130°21'0 0.0
2014-Apr-13 20:33N 54°18' W 130°21'0 0.0
2014-Apr-13 19:33N 54°18' W 130°21'0 0.0
2014-Apr-13 18:33N 54°18' W 130°21'0 0.0
2014-Apr-13 17:33N 54°18' W 130°21'0 0.0
2014-Apr-13 16:33N 54°18' W 130°21'  
2014-Apr-09 04:33N 54°18' W 130°21'0 0.0
2014-Apr-09 03:33N 54°18' W 130°21'0 0.0
2014-Apr-09 02:33N 54°18' W 130°21'0 0.0
2014-Apr-09 01:33N 54°18' W 130°21'0 0.0
2014-Apr-09 00:33N 54°18' W 130°21'0 0.0
2014-Apr-08 23:33N 54°18' W 130°21'0 0.0
2014-Apr-08 22:33N 54°18' W 130°21'0 0.0
2014-Apr-08 21:33N 54°18' W 130°21'0 0.0
2014-Apr-08 20:33N 54°18' W 130°21'0 0.0
2014-Apr-08 19:33N 54°18' W 130°21'0 0.0
2014-Apr-08 18:33N 54°18' W 130°21'0 0.0
2014-Apr-08 17:33N 54°18' W 130°21'0 0.0
2014-Apr-08 16:33N 54°18' W 130°21'0 0.0
2014-Apr-08 15:33N 54°18' W 130°21'0 0.0
2014-Apr-08 14:33N 54°18' W 130°21'0 0.0
2014-Apr-08 13:33N 54°18' W 130°21'0 0.0
2014-Apr-08 12:33N 54°18' W 130°21'0 0.0
2014-Apr-08 11:33N 54°18' W 130°21'0 0.0
2014-Apr-08 10:33N 54°18' W 130°21'0 0.0
2014-Apr-08 09:33N 54°18' W 130°21'0 0.0
2014-Apr-08 08:33N 54°18' W 130°21'0 0.0
2014-Apr-08 07:33N 54°18' W 130°21'0 0.0
2014-Apr-08 06:33N 54°18' W 130°21'0 0.0
2014-Apr-08 05:33N 54°18' W 130°21'0 0.0
2014-Apr-08 04:33N 54°18' W 130°21'0 0.0
2014-Apr-08 03:33N 54°18' W 130°21'0 0.0
2014-Apr-08 02:33N 54°18' W 130°21'0 0.0
2014-Apr-08 01:33N 54°18' W 130°21'0 0.0
2014-Apr-08 00:33N 54°18' W 130°21'0 0.0
2014-Apr-07 23:33N 54°18' W 130°21'0 0.0
2014-Apr-07 22:33N 54°18' W 130°21'0 0.0
2014-Apr-07 21:33N 54°18' W 130°21'0 0.0
2014-Apr-07 20:33N 54°18' W 130°21'0 0.0
2014-Apr-07 19:33N 54°18' W 130°21'  

Dump ship's entire track history

sailing weather and tide predictions

Pacific Pilot IV — CZ3537 — position and weather